レゾリュート の空港の天気 - METARとTAF

レゾリュート空港 ( CYRB / YRB ) - カナダ ヌナブト準州レゾリュート
飛行場実況気象(Metar)
観測時間10/21 11:00 CDT (10/21 16:00 UTC)
風向・風速北北東 7m/s 瞬間風速10m/s
視程10km以上
天気現象
全天の8割程度の雲 雲底高度 1520m
気温-12℃
湿度78%
気圧1010.5hPa
METARCYRB 211600Z 03013G20KT 15SM BKN050 M12/M15 A2981 RMK SC7 SLP105
過去の天気等 Google飛行場航空写真 Wunderground天気予報

過去48時間のMETAR

飛行場予報(TAF)
発表時間: 10/21 10:22 CDT (10/21 15:22 UTC)
予報対象時間: 21日10時 CDT ~ 22日7時 CDT
風向・風速北 6m/s 瞬間風速 11m/s
視程10km以上
全天の8割程度の雲 雲底高度 1520m
21日15時 CDT から
風向・風速北北西 7m/s
視程10km以上
全天の4割程度の雲 雲底高度 910m
21日15時 CDT ~ 22日1時 CDT に一時的に
全天の8割程度の雲 雲底高度 910m
22日1時 CDT から
風向・風速北西 7m/s
視程10km以上
少しの雲 雲底高度 240m
全天の8割程度の雲 雲底高度 610m
22日1時 CDT ~ 22日7時 CDT に一時的に
全天の8割程度の雲 雲底高度 760m
TAF AMD CYRB 211522Z 2115/2212 36012G22KT P6SM BKN050
FM212000 33014KT P6SM SCT030
TEMPO 2120/2206 BKN030
FM220600 32014KT P6SM FEW008 BKN020
TEMPO 2206/2212 BKN025 RMK NXT FCST BY 211800Z